createdAt,value
2019-04-27T00:02:28.139Z,10.40
2019-04-27T00:05:32.455Z,10.40
2019-04-27T00:08:13.923Z,10.30
2019-04-27T00:10:59.830Z,10.20
2019-04-27T00:13:34.772Z,10.20
2019-04-27T00:16:17.043Z,10.10
2019-04-27T00:19:20.491Z,10.00
2019-04-27T00:22:15.287Z,10.00
2019-04-27T00:24:47.136Z,10.00
2019-04-27T00:27:19.136Z,10.00
2019-04-27T00:29:51.349Z,10.10
2019-04-27T00:32:23.855Z,10.20
2019-04-27T00:34:55.967Z,10.20
2019-04-27T00:37:46.685Z,10.20
2019-04-27T00:40:30.111Z,10.20
2019-04-27T00:43:03.015Z,10.10
2019-04-27T00:45:34.993Z,10.20
2019-04-27T00:48:06.804Z,10.30
2019-04-27T00:50:39.457Z,10.20
2019-04-27T00:53:11.266Z,10.10
2019-04-27T00:56:08.117Z,10.10
2019-04-27T00:58:47.238Z,10.10
2019-04-27T01:01:35.777Z,10.00
2019-04-27T01:04:16.431Z,10.00
2019-04-27T01:06:48.261Z,10.00
2019-04-27T01:09:20.149Z,10.00
2019-04-27T01:11:53.460Z,10.00
2019-04-27T01:14:25.616Z,10.10
2019-04-27T01:16:57.470Z,10.20
2019-04-27T01:19:29.537Z,10.20
2019-04-27T01:22:01.946Z,10.20
2019-04-27T01:24:34.020Z,10.20
2019-04-27T01:27:34.594Z,10.30
2019-04-27T01:30:12.498Z,10.20
2019-04-27T01:32:44.607Z,10.20
2019-04-27T01:35:16.677Z,10.20
2019-04-27T01:37:48.773Z,10.10
2019-04-27T01:40:21.731Z,10.10
2019-04-27T01:42:53.821Z,10.10
2019-04-27T01:45:26.294Z,10.10
2019-04-27T01:47:59.565Z,10.20
2019-04-27T01:50:31.493Z,10.20
2019-04-27T01:53:03.338Z,10.20
2019-04-27T01:55:35.127Z,10.10
2019-04-27T01:58:10.715Z,10.10
2019-04-27T02:01:04.569Z,10.10
2019-04-27T02:04:13.905Z,10.00
2019-04-27T02:06:48.692Z,10.00
2019-04-27T02:09:21.252Z,10.20
2019-04-27T02:11:53.078Z,10.20
2019-04-27T02:14:25.203Z,10.30
2019-04-27T02:16:57.029Z,10.30
2019-04-27T02:19:29.482Z,10.30
2019-04-27T02:22:01.306Z,10.30
2019-04-27T02:24:33.755Z,10.40
2019-04-27T02:27:05.553Z,10.30
2019-04-27T02:29:43.697Z,10.30
2019-04-27T02:32:43.619Z,10.30
2019-04-27T02:35:16.538Z,10.20
2019-04-27T02:37:50.177Z,10.20
2019-04-27T02:40:54.484Z,10.20
2019-04-27T02:43:33.798Z,10.30
2019-04-27T02:46:05.650Z,10.20
2019-04-27T02:48:54.783Z,10.30
2019-04-27T02:51:12.813Z,10.30
2019-04-27T02:54:00.124Z,10.30
2019-04-27T02:56:32.041Z,10.20
2019-04-27T02:59:03.833Z,10.10
2019-04-27T03:01:46.347Z,10.10
2019-04-27T03:04:15.329Z,10.10
2019-04-27T03:06:49.934Z,10.10
2019-04-27T03:09:21.254Z,10.20
2019-04-27T03:11:53.388Z,10.20
2019-04-27T03:14:56.189Z,10.20
2019-04-27T03:17:46.325Z,10.10
2019-04-27T03:20:30.047Z,10.10
2019-04-27T03:23:04.464Z,10.00
2019-04-27T03:25:50.395Z,9.90
2019-04-27T03:28:21.525Z,10.00
2019-04-27T03:30:53.588Z,9.90
2019-04-27T03:33:25.744Z,10.00
2019-04-27T03:36:02.061Z,9.90
2019-04-27T03:38:31.185Z,9.80
2019-04-27T03:41:02.983Z,9.80
2019-04-27T03:43:34.814Z,9.80
2019-04-27T03:46:06.607Z,9.70
2019-04-27T03:48:40.734Z,9.70
2019-04-27T03:51:30.058Z,9.70
2019-04-27T03:54:33.165Z,9.70
2019-04-27T03:57:10.839Z,9.60
2019-04-27T03:59:59.683Z,9.50
2019-04-27T04:02:31.941Z,9.40
2019-04-27T04:05:03.881Z,9.40
2019-04-27T04:07:35.687Z,9.30
2019-04-27T04:10:07.607Z,9.20
2019-04-27T04:13:01.286Z,9.00
2019-04-27T04:15:57.083Z,8.90
2019-04-27T04:18:31.788Z,8.90
2019-04-27T04:21:04.402Z,8.90
2019-04-27T04:23:36.211Z,8.70
2019-04-27T04:26:09.857Z,8.70
2019-04-27T04:28:41.702Z,8.70
2019-04-27T04:31:14.405Z,8.70
2019-04-27T04:33:46.209Z,8.80
2019-04-27T04:36:20.155Z,8.80
2019-04-27T04:38:52.261Z,8.90
2019-04-27T04:41:32.582Z,8.90
2019-04-27T04:44:12.473Z,8.80
2019-04-27T04:46:56.485Z,8.80
2019-04-27T04:49:29.617Z,8.80
2019-04-27T04:52:02.139Z,8.80
2019-04-27T04:54:34.175Z,8.80
2019-04-27T04:57:06.083Z,8.80
2019-04-27T04:59:39.079Z,8.90
2019-04-27T05:02:11.115Z,9.00
2019-04-27T05:04:43.011Z,9.10
2019-04-27T05:07:14.843Z,9.10
2019-04-27T05:09:48.589Z,9.10
2019-04-27T05:12:20.527Z,9.20
2019-04-27T05:14:52.614Z,9.20
2019-04-27T05:17:24.750Z,9.10
2019-04-27T05:19:58.958Z,9.10
2019-04-27T05:22:31.604Z,8.90
2019-04-27T05:25:04.165Z,8.90
2019-04-27T05:27:36.277Z,8.90
2019-04-27T05:30:09.314Z,8.90
2019-04-27T05:32:41.397Z,9.00
2019-04-27T05:35:13.214Z,8.90
2019-04-27T05:37:45.482Z,8.80
2019-04-27T05:40:18.947Z,8.80
2019-04-27T05:42:55.367Z,8.70
2019-04-27T05:46:58.787Z,8.60
2019-04-27T05:49:44.514Z,8.70
2019-04-27T05:52:31.248Z,8.70
2019-04-27T05:55:03.361Z,8.80
2019-04-27T05:57:35.440Z,8.90
2019-04-27T06:00:09.221Z,9.00
2019-04-27T06:02:41.078Z,9.20
2019-04-27T06:05:13.718Z,9.20
2019-04-27T06:07:45.822Z,9.20
2019-04-27T06:10:17.662Z,9.30
2019-04-27T06:12:50.031Z,9.40
2019-04-27T06:15:21.890Z,9.50
2019-04-27T06:17:53.994Z,9.60
2019-04-27T06:20:26.126Z,9.90
2019-04-27T06:22:58.865Z,10.10
2019-04-27T06:25:30.846Z,10.30
2019-04-27T06:28:03.226Z,10.30
2019-04-27T06:30:35.208Z,10.50
2019-04-27T06:33:07.298Z,10.60
2019-04-27T06:35:39.949Z,10.70
2019-04-27T06:38:12.180Z,11.00
2019-04-27T06:40:44.050Z,11.30
2019-04-27T06:43:15.882Z,11.50
2019-04-27T06:45:48.778Z,11.60
2019-04-27T06:48:21.346Z,11.90
2019-04-27T06:51:02.665Z,12.10
2019-04-27T06:53:26.806Z,12.20
2019-04-27T06:55:59.046Z,12.40
2019-04-27T06:58:30.885Z,12.80
2019-04-27T07:01:03.123Z,13.10
2019-04-27T07:03:35.291Z,13.20
2019-04-27T07:06:08.837Z,13.30
2019-04-27T07:08:40.881Z,13.40
2019-04-27T07:11:12.796Z,13.50
2019-04-27T07:13:45.097Z,13.60
2019-04-27T07:16:16.986Z,13.60
2019-04-27T07:18:50.414Z,13.70
2019-04-27T07:21:24.802Z,13.70
2019-04-27T07:23:59.818Z,13.80
2019-04-27T07:26:32.885Z,13.90
2019-04-27T07:29:05.025Z,14.00
2019-04-27T07:31:37.157Z,14.00
2019-04-27T07:34:09.448Z,14.10
2019-04-27T07:36:41.505Z,14.20
2019-04-27T07:39:13.324Z,14.50
2019-04-27T07:41:45.198Z,14.70
2019-04-27T07:44:25.860Z,15.00
2019-04-27T07:47:15.272Z,15.30
2019-04-27T07:49:47.319Z,15.60
2019-04-27T07:52:20.575Z,15.80
2019-04-27T07:54:52.510Z,16.20
2019-04-27T07:57:24.359Z,16.50
2019-04-27T07:59:56.162Z,16.60
2019-04-27T08:02:29.090Z,16.70
2019-04-27T08:05:01.162Z,16.90
2019-04-27T08:07:33.749Z,16.80
2019-04-27T08:10:06.025Z,16.90
2019-04-27T08:12:38.669Z,16.90
2019-04-27T08:15:11.900Z,17.10
2019-04-27T08:17:43.989Z,17.30
2019-04-27T08:20:15.824Z,17.40
2019-04-27T08:22:49.603Z,17.60
2019-04-27T08:25:24.105Z,17.80
2019-04-27T08:28:10.464Z,17.50
2019-04-27T08:30:49.384Z,16.80
2019-04-27T08:33:21.972Z,16.40
2019-04-27T08:35:53.797Z,15.90
2019-04-27T08:38:26.092Z,15.50
2019-04-27T08:40:59.218Z,15.40
2019-04-27T08:43:31.883Z,15.20
2019-04-27T08:46:03.711Z,15.10
2019-04-27T08:48:36.956Z,15.20
2019-04-27T08:51:09.637Z,15.30
2019-04-27T08:53:41.785Z,15.40
2019-04-27T08:56:13.871Z,15.40
2019-04-27T08:58:45.712Z,15.70
2019-04-27T09:01:18.646Z,16.20
2019-04-27T09:03:52.305Z,16.90
2019-04-27T09:06:24.717Z,17.50
2019-04-27T09:09:10.568Z,18.10
2019-04-27T09:11:52.529Z,18.60
2019-04-27T09:14:52.431Z,19.00
2019-04-27T09:17:49.814Z,19.00
2019-04-27T09:20:25.156Z,18.90
2019-04-27T09:22:56.976Z,18.40
2019-04-27T09:25:29.619Z,18.20
2019-04-27T09:28:01.607Z,17.80
2019-04-27T09:30:34.252Z,17.80
2019-04-27T09:33:06.647Z,18.00
2019-04-27T09:35:39.148Z,18.10
2019-04-27T09:38:10.967Z,18.30
2019-04-27T09:40:42.850Z,18.30
2019-04-27T09:43:15.771Z,18.10
2019-04-27T09:45:47.757Z,18.00
2019-04-27T09:48:19.591Z,18.00
2019-04-27T09:50:52.103Z,18.30
2019-04-27T09:53:27.123Z,18.50
2019-04-27T09:56:00.573Z,18.60
2019-04-27T09:58:36.628Z,18.90
2019-04-27T10:01:09.047Z,19.10
2019-04-27T10:03:40.908Z,19.10
2019-04-27T10:06:13.104Z,19.20
2019-04-27T10:08:45.177Z,19.00
2019-04-27T10:11:17.133Z,18.80
2019-04-27T10:13:48.980Z,18.70
2019-04-27T10:16:21.835Z,19.10
2019-04-27T10:18:54.105Z,19.30
2019-04-27T10:21:26.721Z,19.10
2019-04-27T10:24:00.320Z,18.60
2019-04-27T10:26:32.687Z,18.10
2019-04-27T10:29:08.414Z,17.70
2019-04-27T10:31:46.059Z,17.20
2019-04-27T10:34:17.894Z,16.50
2019-04-27T10:36:52.276Z,16.00
2019-04-27T10:39:27.405Z,15.40
2019-04-27T10:41:57.748Z,15.10
2019-04-27T10:44:29.560Z,15.00
2019-04-27T10:47:01.805Z,14.70
2019-04-27T10:49:33.640Z,14.60
2019-04-27T10:52:06.352Z,14.60
2019-04-27T10:54:38.817Z,14.60
2019-04-27T10:57:10.761Z,14.60
2019-04-27T10:59:42.702Z,14.40
2019-04-27T11:02:14.552Z,14.30
2019-04-27T11:05:04.193Z,14.20
2019-04-27T11:07:38.032Z,14.10
2019-04-27T11:10:10.397Z,13.80
2019-04-27T11:12:42.366Z,13.60
2019-04-27T11:15:16.228Z,13.30
2019-04-27T11:17:47.861Z,13.10
2019-04-27T11:20:19.768Z,13.30
2019-04-27T11:23:06.709Z,13.50
2019-04-27T11:25:30.387Z,13.60
2019-04-27T11:28:02.631Z,13.70
2019-04-27T11:30:34.825Z,13.80
2019-04-27T11:33:06.709Z,14.10
2019-04-27T11:35:51.836Z,14.40
2019-04-27T11:38:24.424Z,14.90
2019-04-27T11:40:56.779Z,15.40
2019-04-27T11:43:29.073Z,16.00
2019-04-27T11:46:00.978Z,16.70
2019-04-27T11:48:33.329Z,17.30
2019-04-27T11:51:06.915Z,17.50
2019-04-27T11:53:38.986Z,17.00
2019-04-27T11:56:10.789Z,16.60
2019-04-27T11:58:42.912Z,15.80
2019-04-27T12:01:15.970Z,15.40
2019-04-27T12:03:48.477Z,15.30
2019-04-27T12:06:20.457Z,15.20
2019-04-27T12:08:52.932Z,15.10
2019-04-27T12:11:26.102Z,15.40
2019-04-27T12:13:58.357Z,15.80
2019-04-27T12:16:30.599Z,16.30
2019-04-27T12:19:02.576Z,16.70
2019-04-27T12:21:36.198Z,16.30
2019-04-27T12:24:09.183Z,16.00
2019-04-27T12:26:50.958Z,15.80
2019-04-27T12:29:26.407Z,15.40
2019-04-27T12:31:58.735Z,15.30
2019-04-27T12:34:31.159Z,15.40
2019-04-27T12:37:03.411Z,15.50
2019-04-27T12:39:35.955Z,15.70
2019-04-27T12:42:08.206Z,16.00
2019-04-27T12:44:42.186Z,16.30
2019-04-27T12:47:16.237Z,16.50
2019-04-27T12:49:48.301Z,16.70
2019-04-27T12:52:22.730Z,16.50
2019-04-27T12:55:11.733Z,16.40
2019-04-27T12:58:00.406Z,16.10
2019-04-27T13:00:36.337Z,16.10
2019-04-27T13:03:08.502Z,16.20
2019-04-27T13:05:40.358Z,16.30
2019-04-27T13:08:13.585Z,16.10
2019-04-27T13:10:45.441Z,16.00
2019-04-27T13:13:17.238Z,16.50
2019-04-27T13:15:49.505Z,17.40
2019-04-27T13:18:21.305Z,18.30
2019-04-27T13:20:53.149Z,18.50
2019-04-27T13:23:24.958Z,18.20
2019-04-27T13:25:56.858Z,18.10
2019-04-27T13:28:29.375Z,17.70
2019-04-27T13:31:01.877Z,17.00
2019-04-27T13:33:33.684Z,16.50
2019-04-27T13:36:07.584Z,16.40
2019-04-27T13:38:39.322Z,16.10
2019-04-27T13:41:25.519Z,16.00
2019-04-27T13:43:46.952Z,16.00
2019-04-27T13:46:38.156Z,16.50
2019-04-27T13:49:37.841Z,17.50
2019-04-27T13:52:18.783Z,18.70
2019-04-27T13:54:50.634Z,19.10
2019-04-27T13:57:22.476Z,19.10
2019-04-27T13:59:54.292Z,18.80
2019-04-27T14:02:32.067Z,18.20
2019-04-27T14:05:00.130Z,17.80
2019-04-27T14:07:32.057Z,17.60
2019-04-27T14:10:04.365Z,17.70
2019-04-27T14:12:36.272Z,17.80
2019-04-27T14:15:08.698Z,17.80
2019-04-27T14:17:41.060Z,17.90
2019-04-27T14:20:12.992Z,17.50
2019-04-27T14:22:44.922Z,17.40
2019-04-27T14:25:18.154Z,17.40
2019-04-27T14:27:50.758Z,16.90
2019-04-27T14:30:22.615Z,16.30
2019-04-27T14:32:54.499Z,16.20
2019-04-27T14:35:28.215Z,16.20
2019-04-27T14:38:00.401Z,16.00
2019-04-27T14:40:32.395Z,15.90
2019-04-27T14:43:04.272Z,16.00
2019-04-27T14:45:38.153Z,15.90
2019-04-27T14:48:09.684Z,15.90
2019-04-27T14:50:41.491Z,15.80
2019-04-27T14:53:13.882Z,15.80
2019-04-27T14:55:46.009Z,15.70
2019-04-27T14:58:19.182Z,15.50
2019-04-27T15:00:51.281Z,15.60
2019-04-27T15:03:23.197Z,15.70
2019-04-27T15:05:55.274Z,15.80
2019-04-27T15:08:27.385Z,15.80
2019-04-27T15:10:59.532Z,15.80
2019-04-27T15:13:31.887Z,15.70
2019-04-27T15:16:06.643Z,15.40
2019-04-27T15:18:43.649Z,15.30
2019-04-27T15:21:15.710Z,15.30
2019-04-27T15:23:48.361Z,15.20
2019-04-27T15:26:22.910Z,15.30
2019-04-27T15:28:55.817Z,15.40
2019-04-27T15:31:31.985Z,15.20
2019-04-27T15:34:11.871Z,14.90
2019-04-27T15:37:08.758Z,14.70
2019-04-27T15:39:53.193Z,14.80
2019-04-27T15:42:33.196Z,14.60
2019-04-27T15:45:08.500Z,14.60
2019-04-27T15:47:42.447Z,14.70
2019-04-27T15:50:13.773Z,14.70
2019-04-27T15:52:45.785Z,14.70
2019-04-27T15:55:31.733Z,14.70
2019-04-27T15:57:51.699Z,14.70
2019-04-27T16:00:28.813Z,13.90
2019-04-27T16:03:01.464Z,12.30
2019-04-27T16:05:36.007Z,10.70
2019-04-27T16:08:13.022Z,9.80
2019-04-27T16:10:41.300Z,9.50
2019-04-27T16:13:15.172Z,9.30
2019-04-27T16:15:48.104Z,9.10
2019-04-27T16:18:24.552Z,9.00
2019-04-27T16:20:54.961Z,8.90
2019-04-27T16:23:28.260Z,8.80
2019-04-27T16:26:05.227Z,8.60
2019-04-27T16:28:34.946Z,8.60
2019-04-27T16:31:07.070Z,8.60
2019-04-27T16:33:39.184Z,8.70
2019-04-27T16:36:11.082Z,8.70
2019-04-27T16:38:54.561Z,8.60
2019-04-27T16:41:28.143Z,8.60
2019-04-27T16:44:02.271Z,8.50
2019-04-27T16:46:34.777Z,8.70
2019-04-27T16:49:13.720Z,8.90
2019-04-27T16:51:41.890Z,9.20
2019-04-27T16:54:17.480Z,9.60
2019-04-27T16:56:53.379Z,10.30
2019-04-27T16:59:39.557Z,11.00
2019-04-27T17:01:54.990Z,11.10
2019-04-27T17:04:26.823Z,10.90
2019-04-27T17:06:59.120Z,10.80
2019-04-27T17:09:31.284Z,10.70
2019-04-27T17:12:03.528Z,10.70
2019-04-27T17:14:49.130Z,10.70
2019-04-27T17:17:29.474Z,10.50
2019-04-27T17:20:03.297Z,10.40
2019-04-27T17:22:35.420Z,10.40
2019-04-27T17:25:08.966Z,10.30
2019-04-27T17:27:48.147Z,10.40
2019-04-27T17:30:20.452Z,10.40
2019-04-27T17:32:59.143Z,10.50
2019-04-27T17:35:34.763Z,10.50
2019-04-27T17:38:10.547Z,10.60
2019-04-27T17:40:39.655Z,10.60
2019-04-27T17:43:12.047Z,10.60
2019-04-27T17:45:44.182Z,10.60
2019-04-27T17:48:16.160Z,10.70
2019-04-27T17:50:48.976Z,10.70
2019-04-27T17:53:20.969Z,10.70
2019-04-27T17:55:55.015Z,10.70
2019-04-27T17:58:28.570Z,10.70
2019-04-27T18:01:00.620Z,10.70
2019-04-27T18:03:32.754Z,10.70
2019-04-27T18:06:05.042Z,10.60
2019-04-27T18:08:40.011Z,10.60
2019-04-27T18:11:10.938Z,10.60
2019-04-27T18:13:42.846Z,10.50
2019-04-27T18:16:14.954Z,10.50
2019-04-27T18:19:07.880Z,10.30
2019-04-27T18:21:35.966Z,10.10
2019-04-27T18:24:13.339Z,10.00
2019-04-27T18:26:56.501Z,9.90
2019-04-27T18:29:29.372Z,9.90
2019-04-27T18:31:58.703Z,9.80
2019-04-27T18:34:30.561Z,9.80
2019-04-27T18:37:04.328Z,9.80
2019-04-27T18:39:40.912Z,9.60
2019-04-27T18:42:13.182Z,9.50
2019-04-27T18:44:45.774Z,9.30
2019-04-27T18:47:17.860Z,9.20
2019-04-27T18:50:28.211Z,9.20
2019-04-27T18:53:10.165Z,9.20
2019-04-27T18:55:42.421Z,9.20
2019-04-27T18:58:15.241Z,9.00
2019-04-27T19:00:48.439Z,9.00
2019-04-27T19:03:20.866Z,8.80
2019-04-27T19:05:53.138Z,8.80
2019-04-27T19:08:24.968Z,8.70
2019-04-27T19:11:00.048Z,8.60
2019-04-27T19:13:30.482Z,8.50
2019-04-27T19:16:02.768Z,8.40
2019-04-27T19:18:34.602Z,8.40
2019-04-27T19:21:08.644Z,8.40
2019-04-27T19:23:40.549Z,8.60
2019-04-27T19:26:28.948Z,8.70
2019-04-27T19:29:19.938Z,8.80
2019-04-27T19:31:55.424Z,8.90
2019-04-27T19:34:28.646Z,8.90
2019-04-27T19:37:00.959Z,8.90
2019-04-27T19:39:33.091Z,8.80
2019-04-27T19:42:05.295Z,8.80
2019-04-27T19:44:38.925Z,8.80
2019-04-27T19:47:11.333Z,8.80
2019-04-27T19:49:43.180Z,8.70
2019-04-27T19:52:15.452Z,8.80
2019-04-27T19:54:49.289Z,8.90
2019-04-27T19:57:31.795Z,8.90
2019-04-27T19:59:58.942Z,8.90
2019-04-27T20:02:30.991Z,8.80
2019-04-27T20:05:07.271Z,8.90
2019-04-27T20:07:39.198Z,8.90
2019-04-27T20:10:11.185Z,8.80
2019-04-27T20:12:43.393Z,8.70
2019-04-27T20:15:15.286Z,8.70
2019-04-27T20:17:47.819Z,8.70
2019-04-27T20:20:19.894Z,8.80
2019-04-27T20:22:54.330Z,8.70
2019-04-27T20:25:26.454Z,8.70
2019-04-27T20:28:00.872Z,8.70
2019-04-27T20:30:32.937Z,8.70
2019-04-27T20:33:05.902Z,8.50
2019-04-27T20:35:38.129Z,8.10
2019-04-27T20:38:11.156Z,7.70
2019-04-27T20:40:44.803Z,7.40
2019-04-27T20:43:17.022Z,7.00
2019-04-27T20:45:49.150Z,6.80
2019-04-27T20:48:21.272Z,6.80
2019-04-27T20:50:53.632Z,6.80
2019-04-27T20:53:30.954Z,6.80
2019-04-27T20:56:03.279Z,6.70
2019-04-27T20:58:37.475Z,6.80
2019-04-27T21:01:09.972Z,6.90
2019-04-27T21:03:51.163Z,6.90
2019-04-27T21:06:45.127Z,6.90
2019-04-27T21:09:21.282Z,6.90
2019-04-27T21:11:53.275Z,7.00
2019-04-27T21:14:25.133Z,6.90
2019-04-27T21:16:56.959Z,6.90
2019-04-27T21:19:32.570Z,7.10
2019-04-27T21:22:04.643Z,7.10
2019-04-27T21:24:36.759Z,7.10
2019-04-27T21:27:13.034Z,7.10
2019-04-27T21:29:45.118Z,7.20
2019-04-27T21:32:17.197Z,7.40
2019-04-27T21:34:51.534Z,7.60
2019-04-27T21:37:25.296Z,7.70
2019-04-27T21:40:17.789Z,7.80
2019-04-27T21:42:51.146Z,7.90
2019-04-27T21:45:23.566Z,7.80
2019-04-27T21:47:55.759Z,7.80
2019-04-27T21:50:27.896Z,7.90
2019-04-27T21:53:19.025Z,7.90
2019-04-27T21:56:01.858Z,7.90
2019-04-27T21:58:33.839Z,7.90
2019-04-27T22:01:21.585Z,7.90
2019-04-27T22:03:53.336Z,7.80
2019-04-27T22:06:28.064Z,7.60
2019-04-27T22:09:01.289Z,7.50
2019-04-27T22:11:33.309Z,7.30
2019-04-27T22:14:08.726Z,7.20
2019-04-27T22:16:42.430Z,7.10
2019-04-27T22:19:14.512Z,7.20
2019-04-27T22:21:46.858Z,7.30
2019-04-27T22:24:32.346Z,7.30
2019-04-27T22:27:04.242Z,7.20
2019-04-27T22:29:36.661Z,7.00
2019-04-27T22:32:08.684Z,7.20
2019-04-27T22:34:41.426Z,7.20
2019-04-27T22:37:15.994Z,7.30
2019-04-27T22:40:17.740Z,7.40
2019-04-27T22:43:06.805Z,7.50
2019-04-27T22:45:42.199Z,7.50
2019-04-27T22:48:13.354Z,7.40
2019-04-27T22:50:45.476Z,7.50
2019-04-27T22:53:18.136Z,7.60
2019-04-27T22:56:08.194Z,7.50
2019-04-27T22:58:58.556Z,7.50
2019-04-27T23:01:33.741Z,7.20
2019-04-27T23:04:06.796Z,7.00
2019-04-27T23:06:38.848Z,7.00
2019-04-27T23:09:13.655Z,7.10
2019-04-27T23:11:45.454Z,7.10
2019-04-27T23:14:17.293Z,7.10
2019-04-27T23:16:54.870Z,7.10
2019-04-27T23:19:26.704Z,7.10
2019-04-27T23:21:58.529Z,7.20
2019-04-27T23:24:31.058Z,7.00
2019-04-27T23:27:03.615Z,7.00
2019-04-27T23:29:35.595Z,7.10
2019-04-27T23:32:15.496Z,7.20
2019-04-27T23:34:48.382Z,7.30
2019-04-27T23:37:20.477Z,7.30
2019-04-27T23:39:52.582Z,7.30
2019-04-27T23:42:24.656Z,7.40
2019-04-27T23:44:56.891Z,7.20
2019-04-27T23:47:28.693Z,7.10
2019-04-27T23:50:00.954Z,7.10
2019-04-27T23:52:50.642Z,7.20
2019-04-27T23:55:27.527Z,7.20
2019-04-27T23:57:59.311Z,7.20
